sensor_id;sensor_type;location;lat;lon;timestamp;P1;durP1;ratioP1;P2;durP2;ratioP2
1206;SDS011;593;53.184;8.216;2023-06-19T00:01:17;7.53;;;7.00;;
1206;SDS011;593;53.184;8.216;2023-06-19T00:03:42;7.37;;;6.87;;
1206;SDS011;593;53.184;8.216;2023-06-19T00:06:08;7.20;;;6.80;;
1206;SDS011;593;53.184;8.216;2023-06-19T00:08:33;7.33;;;6.83;;
1206;SDS011;593;53.184;8.216;2023-06-19T00:10:59;7.73;;;7.13;;
1206;SDS011;593;53.184;8.216;2023-06-19T00:13:24;7.13;;;6.67;;
1206;SDS011;593;53.184;8.216;2023-06-19T00:15:50;8.00;;;7.43;;
1206;SDS011;593;53.184;8.216;2023-06-19T00:18:15;7.83;;;7.10;;
1206;SDS011;593;53.184;8.216;2023-06-19T00:20:42;7.70;;;7.20;;
1206;SDS011;593;53.184;8.216;2023-06-19T00:23:10;9.10;;;7.70;;
1206;SDS011;593;53.184;8.216;2023-06-19T00:25:38;8.43;;;7.83;;
1206;SDS011;593;53.184;8.216;2023-06-19T00:28:05;9.27;;;8.40;;
1206;SDS011;593;53.184;8.216;2023-06-19T00:30:36;8.07;;;7.47;;
1206;SDS011;593;53.184;8.216;2023-06-19T00:33:01;8.47;;;7.87;;
1206;SDS011;593;53.184;8.216;2023-06-19T00:35:28;8.07;;;7.47;;
1206;SDS011;593;53.184;8.216;2023-06-19T00:37:53;7.57;;;7.07;;
1206;SDS011;593;53.184;8.216;2023-06-19T00:40:27;7.27;;;6.77;;
1206;SDS011;593;53.184;8.216;2023-06-19T00:42:54;8.07;;;7.53;;
1206;SDS011;593;53.184;8.216;2023-06-19T00:45:19;7.00;;;6.60;;
1206;SDS011;593;53.184;8.216;2023-06-19T00:47:45;7.63;;;7.13;;
1206;SDS011;593;53.184;8.216;2023-06-19T00:50:10;7.40;;;6.90;;
1206;SDS011;593;53.184;8.216;2023-06-19T00:52:36;8.03;;;7.43;;
1206;SDS011;593;53.184;8.216;2023-06-19T00:55:03;8.37;;;7.77;;
1206;SDS011;593;53.184;8.216;2023-06-19T00:57:30;8.03;;;7.27;;
1206;SDS011;593;53.184;8.216;2023-06-19T00:59:56;7.87;;;7.30;;
1206;SDS011;593;53.184;8.216;2023-06-19T01:02:22;7.90;;;7.30;;
1206;SDS011;593;53.184;8.216;2023-06-19T01:04:50;8.07;;;7.47;;
1206;SDS011;593;53.184;8.216;2023-06-19T01:08:04;8.10;;;7.50;;
1206;SDS011;593;53.184;8.216;2023-06-19T01:10:12;8.07;;;7.37;;
1206;SDS011;593;53.184;8.216;2023-06-19T01:12:45;8.13;;;7.53;;
1206;SDS011;593;53.184;8.216;2023-06-19T01:15:17;8.07;;;7.47;;
1206;SDS011;593;53.184;8.216;2023-06-19T01:17:43;6.53;;;6.03;;
1206;SDS011;593;53.184;8.216;2023-06-19T01:20:11;6.97;;;6.40;;
1206;SDS011;593;53.184;8.216;2023-06-19T01:22:37;8.83;;;7.07;;
1206;SDS011;593;53.184;8.216;2023-06-19T01:25:02;8.80;;;8.10;;
1206;SDS011;593;53.184;8.216;2023-06-19T01:27:31;7.30;;;6.70;;
1206;SDS011;593;53.184;8.216;2023-06-19T01:29:58;7.70;;;7.00;;
1206;SDS011;593;53.184;8.216;2023-06-19T01:35:03;7.40;;;6.80;;
1206;SDS011;593;53.184;8.216;2023-06-19T01:37:31;6.80;;;6.20;;
1206;SDS011;593;53.184;8.216;2023-06-19T01:39:58;6.27;;;5.77;;
1206;SDS011;593;53.184;8.216;2023-06-19T01:42:25;6.53;;;6.03;;
1206;SDS011;593;53.184;8.216;2023-06-19T01:44:52;6.80;;;6.20;;
1206;SDS011;593;53.184;8.216;2023-06-19T01:47:18;7.63;;;5.93;;
1206;SDS011;593;53.184;8.216;2023-06-19T01:49:47;6.90;;;6.30;;
1206;SDS011;593;53.184;8.216;2023-06-19T01:52:13;6.47;;;5.97;;
1206;SDS011;593;53.184;8.216;2023-06-19T01:54:39;6.67;;;6.17;;
1206;SDS011;593;53.184;8.216;2023-06-19T01:57:04;6.03;;;5.60;;
1206;SDS011;593;53.184;8.216;2023-06-19T01:59:30;6.50;;;6.00;;
1206;SDS011;593;53.184;8.216;2023-06-19T02:01:55;7.10;;;6.50;;
1206;SDS011;593;53.184;8.216;2023-06-19T02:04:21;7.37;;;6.20;;
1206;SDS011;593;53.184;8.216;2023-06-19T02:06:46;7.33;;;6.73;;
1206;SDS011;593;53.184;8.216;2023-06-19T02:09:11;6.70;;;6.13;;
1206;SDS011;593;53.184;8.216;2023-06-19T02:11:37;7.70;;;7.20;;
1206;SDS011;593;53.184;8.216;2023-06-19T02:14:02;6.93;;;6.43;;
1206;SDS011;593;53.184;8.216;2023-06-19T02:16:27;7.57;;;6.87;;
1206;SDS011;593;53.184;8.216;2023-06-19T02:18:53;8.03;;;7.33;;
1206;SDS011;593;53.184;8.216;2023-06-19T02:21:18;7.63;;;6.70;;
1206;SDS011;593;53.184;8.216;2023-06-19T02:23:43;6.43;;;5.93;;
1206;SDS011;593;53.184;8.216;2023-06-19T02:26:09;6.97;;;6.47;;
1206;SDS011;593;53.184;8.216;2023-06-19T02:28:34;6.00;;;5.60;;
1206;SDS011;593;53.184;8.216;2023-06-19T02:30:59;7.80;;;7.10;;
1206;SDS011;593;53.184;8.216;2023-06-19T02:33:25;7.10;;;6.50;;
1206;SDS011;593;53.184;8.216;2023-06-19T02:35:50;7.67;;;6.93;;
1206;SDS011;593;53.184;8.216;2023-06-19T02:38:15;6.93;;;6.43;;
1206;SDS011;593;53.184;8.216;2023-06-19T02:40:43;7.13;;;6.63;;
1206;SDS011;593;53.184;8.216;2023-06-19T02:43:09;6.80;;;6.27;;
1206;SDS011;593;53.184;8.216;2023-06-19T02:45:34;7.27;;;6.67;;
1206;SDS011;593;53.184;8.216;2023-06-19T02:47:59;7.30;;;6.67;;
1206;SDS011;593;53.184;8.216;2023-06-19T02:50:25;7.20;;;6.60;;
1206;SDS011;593;53.184;8.216;2023-06-19T02:52:50;8.20;;;7.60;;
1206;SDS011;593;53.184;8.216;2023-06-19T02:55:15;6.93;;;6.33;;
1206;SDS011;593;53.184;8.216;2023-06-19T02:57:41;6.50;;;6.00;;
1206;SDS011;593;53.184;8.216;2023-06-19T03:00:06;6.93;;;6.43;;
1206;SDS011;593;53.184;8.216;2023-06-19T03:02:34;7.70;;;7.00;;
1206;SDS011;593;53.184;8.216;2023-06-19T03:04:59;6.70;;;6.20;;
1206;SDS011;593;53.184;8.216;2023-06-19T03:07:24;6.47;;;5.97;;
1206;SDS011;593;53.184;8.216;2023-06-19T03:09:53;6.87;;;6.17;;
1206;SDS011;593;53.184;8.216;2023-06-19T03:12:19;6.60;;;6.10;;
1206;SDS011;593;53.184;8.216;2023-06-19T03:14:44;7.50;;;6.83;;
1206;SDS011;593;53.184;8.216;2023-06-19T03:17:09;6.80;;;6.30;;
1206;SDS011;593;53.184;8.216;2023-06-19T03:19:35;7.50;;;6.90;;
1206;SDS011;593;53.184;8.216;2023-06-19T03:22:00;6.60;;;6.00;;
1206;SDS011;593;53.184;8.216;2023-06-19T03:24:25;7.00;;;6.30;;
1206;SDS011;593;53.184;8.216;2023-06-19T03:26:51;7.17;;;6.67;;
1206;SDS011;593;53.184;8.216;2023-06-19T03:29:16;5.90;;;5.60;;
1206;SDS011;593;53.184;8.216;2023-06-19T03:31:41;6.47;;;5.97;;
1206;SDS011;593;53.184;8.216;2023-06-19T03:34:07;6.93;;;6.40;;
1206;SDS011;593;53.184;8.216;2023-06-19T03:36:32;7.27;;;6.67;;
1206;SDS011;593;53.184;8.216;2023-06-19T03:38:57;7.17;;;6.57;;
1206;SDS011;593;53.184;8.216;2023-06-19T03:41:23;6.63;;;6.13;;
1206;SDS011;593;53.184;8.216;2023-06-19T03:43:48;6.13;;;5.73;;
1206;SDS011;593;53.184;8.216;2023-06-19T03:46:14;8.70;;;6.17;;
1206;SDS011;593;53.184;8.216;2023-06-19T03:48:39;6.57;;;5.97;;
1206;SDS011;593;53.184;8.216;2023-06-19T03:51:04;6.53;;;6.03;;
1206;SDS011;593;53.184;8.216;2023-06-19T03:53:29;7.80;;;7.13;;
1206;SDS011;593;53.184;8.216;2023-06-19T03:55:55;8.27;;;7.47;;
1206;SDS011;593;53.184;8.216;2023-06-19T03:58:20;6.83;;;6.30;;
1206;SDS011;593;53.184;8.216;2023-06-19T04:00:45;7.30;;;6.70;;
1206;SDS011;593;53.184;8.216;2023-06-19T04:03:11;9.90;;;6.27;;
1206;SDS011;593;53.184;8.216;2023-06-19T04:05:36;6.73;;;6.23;;
1206;SDS011;593;53.184;8.216;2023-06-19T04:08:02;6.03;;;5.53;;
1206;SDS011;593;53.184;8.216;2023-06-19T04:10:28;6.50;;;6.00;;
1206;SDS011;593;53.184;8.216;2023-06-19T04:12:53;7.27;;;6.77;;
1206;SDS011;593;53.184;8.216;2023-06-19T04:15:20;7.43;;;6.73;;
1206;SDS011;593;53.184;8.216;2023-06-19T04:17:46;8.60;;;6.53;;
1206;SDS011;593;53.184;8.216;2023-06-19T04:20:11;9.00;;;6.10;;
1206;SDS011;593;53.184;8.216;2023-06-19T04:22:37;7.70;;;6.87;;
1206;SDS011;593;53.184;8.216;2023-06-19T04:25:04;6.70;;;6.20;;
1206;SDS011;593;53.184;8.216;2023-06-19T04:27:31;6.80;;;6.30;;
1206;SDS011;593;53.184;8.216;2023-06-19T04:29:56;6.37;;;5.97;;
1206;SDS011;593;53.184;8.216;2023-06-19T04:32:22;7.00;;;6.40;;
1206;SDS011;593;53.184;8.216;2023-06-19T04:34:47;6.87;;;6.37;;
1206;SDS011;593;53.184;8.216;2023-06-19T04:37:12;5.73;;;5.33;;
1206;SDS011;593;53.184;8.216;2023-06-19T04:39:38;6.40;;;5.90;;
1206;SDS011;593;53.184;8.216;2023-06-19T04:42:03;6.33;;;5.90;;
1206;SDS011;593;53.184;8.216;2023-06-19T04:44:29;5.90;;;5.30;;
1206;SDS011;593;53.184;8.216;2023-06-19T04:46:58;6.43;;;5.93;;
1206;SDS011;593;53.184;8.216;2023-06-19T04:49:27;6.53;;;5.97;;
1206;SDS011;593;53.184;8.216;2023-06-19T04:51:55;7.10;;;6.17;;
1206;SDS011;593;53.184;8.216;2023-06-19T04:54:20;5.93;;;5.53;;
1206;SDS011;593;53.184;8.216;2023-06-19T04:56:46;7.17;;;6.53;;
1206;SDS011;593;53.184;8.216;2023-06-19T04:59:11;6.60;;;5.63;;
1206;SDS011;593;53.184;8.216;2023-06-19T05:01:36;6.87;;;6.27;;
1206;SDS011;593;53.184;8.216;2023-06-19T05:04:05;6.30;;;5.73;;
1206;SDS011;593;53.184;8.216;2023-06-19T05:06:31;6.97;;;6.27;;
1206;SDS011;593;53.184;8.216;2023-06-19T05:08:56;7.93;;;7.20;;
1206;SDS011;593;53.184;8.216;2023-06-19T05:11:22;7.67;;;6.83;;
1206;SDS011;593;53.184;8.216;2023-06-19T05:13:47;7.80;;;6.80;;
1206;SDS011;593;53.184;8.216;2023-06-19T05:16:13;6.10;;;5.70;;
1206;SDS011;593;53.184;8.216;2023-06-19T05:18:41;9.90;;;6.20;;
1206;SDS011;593;53.184;8.216;2023-06-19T05:21:08;6.33;;;5.73;;
1206;SDS011;593;53.184;8.216;2023-06-19T05:23:34;7.50;;;6.90;;
1206;SDS011;593;53.184;8.216;2023-06-19T05:26:00;7.17;;;6.67;;
1206;SDS011;593;53.184;8.216;2023-06-19T05:28:25;6.83;;;6.33;;
1206;SDS011;593;53.184;8.216;2023-06-19T05:30:51;7.23;;;6.63;;
1206;SDS011;593;53.184;8.216;2023-06-19T05:33:16;7.20;;;6.60;;
1206;SDS011;593;53.184;8.216;2023-06-19T05:35:45;6.63;;;6.13;;
1206;SDS011;593;53.184;8.216;2023-06-19T05:38:16;6.80;;;6.30;;
1206;SDS011;593;53.184;8.216;2023-06-19T05:40:42;7.10;;;6.03;;
1206;SDS011;593;53.184;8.216;2023-06-19T05:43:07;7.63;;;7.03;;
1206;SDS011;593;53.184;8.216;2023-06-19T05:45:32;7.23;;;6.57;;
1206;SDS011;593;53.184;8.216;2023-06-19T05:47:58;7.30;;;6.60;;
1206;SDS011;593;53.184;8.216;2023-06-19T05:50:24;7.17;;;6.50;;
1206;SDS011;593;53.184;8.216;2023-06-19T05:52:49;7.57;;;6.53;;
1206;SDS011;593;53.184;8.216;2023-06-19T05:55:15;7.53;;;6.80;;
1206;SDS011;593;53.184;8.216;2023-06-19T05:57:40;7.70;;;6.90;;
1206;SDS011;593;53.184;8.216;2023-06-19T06:00:06;7.30;;;6.60;;
1206;SDS011;593;53.184;8.216;2023-06-19T06:02:35;7.43;;;6.83;;
1206;SDS011;593;53.184;8.216;2023-06-19T06:05:00;7.17;;;6.57;;
1206;SDS011;593;53.184;8.216;2023-06-19T06:07:36;7.37;;;6.50;;
1206;SDS011;593;53.184;8.216;2023-06-19T06:10:05;7.10;;;6.60;;
1206;SDS011;593;53.184;8.216;2023-06-19T06:12:33;7.43;;;6.73;;
1206;SDS011;593;53.184;8.216;2023-06-19T06:15:00;7.10;;;6.50;;
1206;SDS011;593;53.184;8.216;2023-06-19T06:17:26;7.50;;;6.67;;
1206;SDS011;593;53.184;8.216;2023-06-19T06:19:51;7.47;;;6.87;;
1206;SDS011;593;53.184;8.216;2023-06-19T06:22:16;6.70;;;6.10;;
1206;SDS011;593;53.184;8.216;2023-06-19T06:24:43;7.63;;;6.70;;
1206;SDS011;593;53.184;8.216;2023-06-19T06:27:08;7.50;;;6.90;;
1206;SDS011;593;53.184;8.216;2023-06-19T06:29:34;7.00;;;6.50;;
1206;SDS011;593;53.184;8.216;2023-06-19T06:32:05;6.97;;;6.40;;
1206;SDS011;593;53.184;8.216;2023-06-19T06:34:31;7.07;;;6.57;;
1206;SDS011;593;53.184;8.216;2023-06-19T06:36:58;7.53;;;7.03;;
1206;SDS011;593;53.184;8.216;2023-06-19T06:39:23;7.57;;;6.93;;
1206;SDS011;593;53.184;8.216;2023-06-19T06:41:49;7.57;;;6.83;;
1206;SDS011;593;53.184;8.216;2023-06-19T06:44:14;7.77;;;7.07;;
1206;SDS011;593;53.184;8.216;2023-06-19T06:46:40;7.67;;;7.07;;
1206;SDS011;593;53.184;8.216;2023-06-19T06:49:05;7.80;;;7.10;;
1206;SDS011;593;53.184;8.216;2023-06-19T06:51:31;7.53;;;6.93;;
1206;SDS011;593;53.184;8.216;2023-06-19T06:53:56;7.30;;;6.70;;
1206;SDS011;593;53.184;8.216;2023-06-19T06:56:21;7.37;;;6.87;;
1206;SDS011;593;53.184;8.216;2023-06-19T06:58:47;8.23;;;7.53;;
1206;SDS011;593;53.184;8.216;2023-06-19T07:01:12;9.00;;;8.20;;
1206;SDS011;593;53.184;8.216;2023-06-19T07:03:37;7.60;;;7.00;;
1206;SDS011;593;53.184;8.216;2023-06-19T07:06:04;7.60;;;7.00;;
1206;SDS011;593;53.184;8.216;2023-06-19T07:08:29;7.93;;;7.13;;
1206;SDS011;593;53.184;8.216;2023-06-19T07:10:55;8.40;;;7.70;;
1206;SDS011;593;53.184;8.216;2023-06-19T07:13:20;7.67;;;7.07;;
1206;SDS011;593;53.184;8.216;2023-06-19T07:15:46;8.40;;;7.63;;
1206;SDS011;593;53.184;8.216;2023-06-19T07:18:11;6.70;;;6.10;;
1206;SDS011;593;53.184;8.216;2023-06-19T07:20:36;6.87;;;6.27;;
1206;SDS011;593;53.184;8.216;2023-06-19T07:23:02;7.30;;;6.60;;
1206;SDS011;593;53.184;8.216;2023-06-19T07:25:27;6.30;;;5.80;;
1206;SDS011;593;53.184;8.216;2023-06-19T07:27:53;6.80;;;6.20;;
1206;SDS011;593;53.184;8.216;2023-06-19T07:30:18;6.20;;;5.70;;
1206;SDS011;593;53.184;8.216;2023-06-19T07:32:44;6.60;;;6.10;;
1206;SDS011;593;53.184;8.216;2023-06-19T07:35:09;6.40;;;5.90;;
1206;SDS011;593;53.184;8.216;2023-06-19T07:37:36;6.63;;;6.07;;
1206;SDS011;593;53.184;8.216;2023-06-19T07:40:01;7.83;;;7.10;;
1206;SDS011;593;53.184;8.216;2023-06-19T07:42:27;6.00;;;5.60;;
1206;SDS011;593;53.184;8.216;2023-06-19T07:44:52;5.90;;;5.43;;
1206;SDS011;593;53.184;8.216;2023-06-19T07:47:18;9.83;;;5.50;;
1206;SDS011;593;53.184;8.216;2023-06-19T07:49:44;4.80;;;4.50;;
1206;SDS011;593;53.184;8.216;2023-06-19T07:52:10;3.83;;;3.60;;
1206;SDS011;593;53.184;8.216;2023-06-19T07:54:36;5.07;;;4.77;;
1206;SDS011;593;53.184;8.216;2023-06-19T07:57:02;5.13;;;4.73;;
1206;SDS011;593;53.184;8.216;2023-06-19T07:59:27;6.77;;;6.27;;
1206;SDS011;593;53.184;8.216;2023-06-19T08:01:52;6.90;;;6.40;;
1206;SDS011;593;53.184;8.216;2023-06-19T08:04:18;6.43;;;5.83;;
1206;SDS011;593;53.184;8.216;2023-06-19T08:06:43;6.47;;;5.97;;
1206;SDS011;593;53.184;8.216;2023-06-19T08:09:08;5.70;;;5.30;;
1206;SDS011;593;53.184;8.216;2023-06-19T08:11:34;6.17;;;5.57;;
1206;SDS011;593;53.184;8.216;2023-06-19T08:14:00;5.27;;;4.87;;
1206;SDS011;593;53.184;8.216;2023-06-19T08:16:25;5.20;;;3.90;;
1206;SDS011;593;53.184;8.216;2023-06-19T08:18:51;5.43;;;4.47;;
1206;SDS011;593;53.184;8.216;2023-06-19T08:21:17;4.37;;;4.07;;
1206;SDS011;593;53.184;8.216;2023-06-19T08:23:43;4.60;;;3.70;;
1206;SDS011;593;53.184;8.216;2023-06-19T08:26:09;4.23;;;3.93;;
1206;SDS011;593;53.184;8.216;2023-06-19T08:28:35;3.37;;;3.17;;
1206;SDS011;593;53.184;8.216;2023-06-19T08:31:00;4.30;;;3.90;;
1206;SDS011;593;53.184;8.216;2023-06-19T08:33:26;4.30;;;4.00;;
1206;SDS011;593;53.184;8.216;2023-06-19T08:35:51;4.40;;;3.50;;
1206;SDS011;593;53.184;8.216;2023-06-19T08:38:17;4.00;;;3.70;;
1206;SDS011;593;53.184;8.216;2023-06-19T08:40:43;4.20;;;3.90;;
1206;SDS011;593;53.184;8.216;2023-06-19T08:43:09;3.60;;;3.40;;
1206;SDS011;593;53.184;8.216;2023-06-19T08:45:35;3.60;;;3.40;;
1206;SDS011;593;53.184;8.216;2023-06-19T08:48:00;3.77;;;3.47;;
1206;SDS011;593;53.184;8.216;2023-06-19T08:50:30;3.73;;;3.47;;
1206;SDS011;593;53.184;8.216;2023-06-19T08:52:57;4.77;;;3.53;;
1206;SDS011;593;53.184;8.216;2023-06-19T08:55:22;3.67;;;3.47;;
1206;SDS011;593;53.184;8.216;2023-06-19T08:57:48;3.27;;;3.03;;
1206;SDS011;593;53.184;8.216;2023-06-19T09:00:24;4.07;;;3.77;;
1206;SDS011;593;53.184;8.216;2023-06-19T09:02:52;4.10;;;3.20;;
1206;SDS011;593;53.184;8.216;2023-06-19T09:05:25;11.00;;;4.00;;
1206;SDS011;593;53.184;8.216;2023-06-19T09:07:54;4.00;;;3.70;;
1206;SDS011;593;53.184;8.216;2023-06-19T09:10:21;4.80;;;3.80;;
1206;SDS011;593;53.184;8.216;2023-06-19T09:13:04;3.90;;;3.50;;
1206;SDS011;593;53.184;8.216;2023-06-19T09:15:36;7.23;;;4.10;;
1206;SDS011;593;53.184;8.216;2023-06-19T09:18:06;3.57;;;3.27;;
1206;SDS011;593;53.184;8.216;2023-06-19T09:20:33;3.00;;;2.80;;
1206;SDS011;593;53.184;8.216;2023-06-19T09:23:04;3.47;;;3.23;;
1206;SDS011;593;53.184;8.216;2023-06-19T09:25:30;3.30;;;3.00;;
1206;SDS011;593;53.184;8.216;2023-06-19T09:27:56;2.90;;;2.70;;
1206;SDS011;593;53.184;8.216;2023-06-19T09:30:22;2.90;;;2.80;;
1206;SDS011;593;53.184;8.216;2023-06-19T09:32:48;3.03;;;2.83;;
1206;SDS011;593;53.184;8.216;2023-06-19T09:35:14;3.20;;;2.90;;
1206;SDS011;593;53.184;8.216;2023-06-19T09:37:40;2.93;;;2.73;;
1206;SDS011;593;53.184;8.216;2023-06-19T09:40:06;3.00;;;2.80;;
1206;SDS011;593;53.184;8.216;2023-06-19T09:42:36;3.37;;;3.07;;
1206;SDS011;593;53.184;8.216;2023-06-19T09:45:04;3.00;;;2.80;;
1206;SDS011;593;53.184;8.216;2023-06-19T09:47:32;3.70;;;2.93;;
1206;SDS011;593;53.184;8.216;2023-06-19T09:50:01;3.17;;;2.50;;
1206;SDS011;593;53.184;8.216;2023-06-19T09:52:28;2.93;;;2.57;;
1206;SDS011;593;53.184;8.216;2023-06-19T09:54:53;3.23;;;3.03;;
1206;SDS011;593;53.184;8.216;2023-06-19T09:57:20;3.30;;;3.10;;
1206;SDS011;593;53.184;8.216;2023-06-19T09:59:53;3.00;;;2.80;;
1206;SDS011;593;53.184;8.216;2023-06-19T10:02:21;2.80;;;2.63;;
1206;SDS011;593;53.184;8.216;2023-06-19T10:04:51;6.03;;;2.50;;
1206;SDS011;593;53.184;8.216;2023-06-19T10:07:23;2.73;;;2.60;;
1206;SDS011;593;53.184;8.216;2023-06-19T10:12:21;2.63;;;2.43;;
1206;SDS011;593;53.184;8.216;2023-06-19T10:14:47;4.73;;;3.07;;
1206;SDS011;593;53.184;8.216;2023-06-19T10:17:18;4.60;;;2.97;;
1206;SDS011;593;53.184;8.216;2023-06-19T10:19:50;2.20;;;2.10;;
1206;SDS011;593;53.184;8.216;2023-06-19T10:22:20;3.60;;;3.30;;
1206;SDS011;593;53.184;8.216;2023-06-19T10:24:58;3.57;;;3.33;;
1206;SDS011;593;53.184;8.216;2023-06-19T10:27:33;2.60;;;2.50;;
1206;SDS011;593;53.184;8.216;2023-06-19T10:30:02;3.10;;;2.83;;
1206;SDS011;593;53.184;8.216;2023-06-19T10:32:29;2.60;;;2.50;;
1206;SDS011;593;53.184;8.216;2023-06-19T10:34:54;2.73;;;2.37;;
1206;SDS011;593;53.184;8.216;2023-06-19T10:37:31;3.53;;;3.17;;
1206;SDS011;593;53.184;8.216;2023-06-19T10:39:58;2.80;;;2.60;;
1206;SDS011;593;53.184;8.216;2023-06-19T10:42:23;3.53;;;3.33;;
1206;SDS011;593;53.184;8.216;2023-06-19T10:44:48;3.27;;;3.07;;
1206;SDS011;593;53.184;8.216;2023-06-19T10:47:14;3.60;;;3.40;;
1206;SDS011;593;53.184;8.216;2023-06-19T10:49:41;2.30;;;2.20;;
1206;SDS011;593;53.184;8.216;2023-06-19T10:52:07;2.33;;;2.23;;
1206;SDS011;593;53.184;8.216;2023-06-19T10:54:32;2.90;;;2.80;;
1206;SDS011;593;53.184;8.216;2023-06-19T10:56:57;2.60;;;2.43;;
1206;SDS011;593;53.184;8.216;2023-06-19T10:59:28;2.93;;;2.73;;
1206;SDS011;593;53.184;8.216;2023-06-19T11:01:53;2.67;;;2.47;;
1206;SDS011;593;53.184;8.216;2023-06-19T11:04:18;3.13;;;2.93;;
1206;SDS011;593;53.184;8.216;2023-06-19T11:06:44;3.30;;;3.07;;
1206;SDS011;593;53.184;8.216;2023-06-19T11:09:12;4.83;;;2.37;;
1206;SDS011;593;53.184;8.216;2023-06-19T11:11:41;3.07;;;2.80;;
1206;SDS011;593;53.184;8.216;2023-06-19T11:14:08;3.20;;;3.00;;
1206;SDS011;593;53.184;8.216;2023-06-19T11:16:39;2.77;;;2.57;;
1206;SDS011;593;53.184;8.216;2023-06-19T11:19:14;3.63;;;3.43;;
1206;SDS011;593;53.184;8.216;2023-06-19T11:21:45;2.50;;;2.40;;
1206;SDS011;593;53.184;8.216;2023-06-19T11:24:13;2.70;;;2.60;;
1206;SDS011;593;53.184;8.216;2023-06-19T11:26:40;3.13;;;2.93;;
1206;SDS011;593;53.184;8.216;2023-06-19T11:29:19;2.53;;;2.43;;
1206;SDS011;593;53.184;8.216;2023-06-19T11:31:48;2.87;;;2.67;;
1206;SDS011;593;53.184;8.216;2023-06-19T11:34:14;4.73;;;3.07;;
1206;SDS011;593;53.184;8.216;2023-06-19T11:36:41;3.20;;;2.60;;
1206;SDS011;593;53.184;8.216;2023-06-19T11:39:11;3.60;;;3.40;;
1206;SDS011;593;53.184;8.216;2023-06-19T11:41:40;4.17;;;3.87;;
1206;SDS011;593;53.184;8.216;2023-06-19T11:44:09;3.10;;;2.90;;
1206;SDS011;593;53.184;8.216;2023-06-19T11:46:35;3.17;;;2.97;;
1206;SDS011;593;53.184;8.216;2023-06-19T11:49:34;3.20;;;3.00;;
1206;SDS011;593;53.184;8.216;2023-06-19T11:51:57;4.10;;;3.80;;
1206;SDS011;593;53.184;8.216;2023-06-19T11:54:22;3.00;;;2.80;;
1206;SDS011;593;53.184;8.216;2023-06-19T11:56:48;3.10;;;2.90;;
1206;SDS011;593;53.184;8.216;2023-06-19T11:59:13;3.33;;;2.93;;
1206;SDS011;593;53.184;8.216;2023-06-19T12:01:39;3.33;;;3.13;;
1206;SDS011;593;53.184;8.216;2023-06-19T12:04:04;3.60;;;3.30;;
1206;SDS011;593;53.184;8.216;2023-06-19T12:06:30;3.40;;;3.10;;
1206;SDS011;593;53.184;8.216;2023-06-19T12:08:55;3.30;;;3.00;;
1206;SDS011;593;53.184;8.216;2023-06-19T12:11:21;3.40;;;3.20;;
1206;SDS011;593;53.184;8.216;2023-06-19T12:13:47;3.30;;;3.10;;
1206;SDS011;593;53.184;8.216;2023-06-19T12:16:13;4.23;;;3.83;;
1206;SDS011;593;53.184;8.216;2023-06-19T12:18:39;4.90;;;4.37;;
1206;SDS011;593;53.184;8.216;2023-06-19T12:21:04;4.50;;;4.20;;
1206;SDS011;593;53.184;8.216;2023-06-19T12:23:31;4.30;;;4.00;;
1206;SDS011;593;53.184;8.216;2023-06-19T12:25:56;4.30;;;4.10;;
1206;SDS011;593;53.184;8.216;2023-06-19T12:28:22;7.30;;;4.67;;
1206;SDS011;593;53.184;8.216;2023-06-19T12:30:48;5.40;;;4.77;;
1206;SDS011;593;53.184;8.216;2023-06-19T12:33:16;4.73;;;4.30;;
1206;SDS011;593;53.184;8.216;2023-06-19T12:35:45;4.10;;;3.80;;
1206;SDS011;593;53.184;8.216;2023-06-19T12:38:11;4.50;;;4.20;;
1206;SDS011;593;53.184;8.216;2023-06-19T12:40:37;5.00;;;4.60;;
1206;SDS011;593;53.184;8.216;2023-06-19T12:43:03;5.27;;;4.80;;
1206;SDS011;593;53.184;8.216;2023-06-19T12:45:28;4.73;;;4.33;;
1206;SDS011;593;53.184;8.216;2023-06-19T12:47:54;5.40;;;5.00;;
1206;SDS011;593;53.184;8.216;2023-06-19T12:50:19;5.83;;;5.33;;
1206;SDS011;593;53.184;8.216;2023-06-19T12:52:45;4.43;;;4.13;;
1206;SDS011;593;53.184;8.216;2023-06-19T12:55:10;3.77;;;3.57;;
1206;SDS011;593;53.184;8.216;2023-06-19T12:57:35;4.90;;;4.50;;
1206;SDS011;593;53.184;8.216;2023-06-19T13:00:01;5.17;;;4.77;;
1206;SDS011;593;53.184;8.216;2023-06-19T13:02:30;4.07;;;3.80;;
1206;SDS011;593;53.184;8.216;2023-06-19T13:04:56;4.00;;;3.70;;
1206;SDS011;593;53.184;8.216;2023-06-19T13:07:23;4.33;;;4.03;;
1206;SDS011;593;53.184;8.216;2023-06-19T13:09:48;5.17;;;4.77;;
1206;SDS011;593;53.184;8.216;2023-06-19T13:12:14;5.27;;;4.87;;
1206;SDS011;593;53.184;8.216;2023-06-19T13:14:39;5.13;;;4.83;;
1206;SDS011;593;53.184;8.216;2023-06-19T13:17:04;5.00;;;4.70;;
1206;SDS011;593;53.184;8.216;2023-06-19T13:19:30;4.90;;;4.60;;
1206;SDS011;593;53.184;8.216;2023-06-19T13:21:55;5.80;;;5.40;;
1206;SDS011;593;53.184;8.216;2023-06-19T13:24:21;5.53;;;5.03;;
1206;SDS011;593;53.184;8.216;2023-06-19T13:26:46;5.97;;;5.47;;
1206;SDS011;593;53.184;8.216;2023-06-19T13:29:11;5.70;;;5.30;;
1206;SDS011;593;53.184;8.216;2023-06-19T13:31:37;7.33;;;6.73;;
1206;SDS011;593;53.184;8.216;2023-06-19T13:34:02;6.77;;;6.07;;
1206;SDS011;593;53.184;8.216;2023-06-19T13:36:29;6.83;;;6.43;;
1206;SDS011;593;53.184;8.216;2023-06-19T13:38:54;7.10;;;6.50;;
1206;SDS011;593;53.184;8.216;2023-06-19T13:41:20;7.03;;;6.33;;
1206;SDS011;593;53.184;8.216;2023-06-19T13:43:45;6.63;;;6.13;;
1206;SDS011;593;53.184;8.216;2023-06-19T13:46:10;7.50;;;6.80;;
1206;SDS011;593;53.184;8.216;2023-06-19T13:48:36;6.60;;;6.10;;
1206;SDS011;593;53.184;8.216;2023-06-19T13:51:01;5.93;;;5.43;;
1206;SDS011;593;53.184;8.216;2023-06-19T13:53:27;6.27;;;5.80;;
1206;SDS011;593;53.184;8.216;2023-06-19T13:55:54;5.60;;;5.20;;
1206;SDS011;593;53.184;8.216;2023-06-19T13:58:20;5.60;;;5.20;;
1206;SDS011;593;53.184;8.216;2023-06-19T14:00:45;5.13;;;4.53;;
1206;SDS011;593;53.184;8.216;2023-06-19T14:03:10;4.37;;;4.07;;
1206;SDS011;593;53.184;8.216;2023-06-19T14:05:36;5.07;;;4.67;;
1206;SDS011;593;53.184;8.216;2023-06-19T14:08:03;4.87;;;4.57;;
1206;SDS011;593;53.184;8.216;2023-06-19T14:10:28;5.03;;;4.53;;
1206;SDS011;593;53.184;8.216;2023-06-19T14:12:54;5.07;;;4.67;;
1206;SDS011;593;53.184;8.216;2023-06-19T14:15:19;4.43;;;4.13;;
1206;SDS011;593;53.184;8.216;2023-06-19T14:17:45;4.33;;;4.03;;
1206;SDS011;593;53.184;8.216;2023-06-19T14:20:10;4.87;;;4.50;;
1206;SDS011;593;53.184;8.216;2023-06-19T14:22:36;4.53;;;4.10;;
1206;SDS011;593;53.184;8.216;2023-06-19T14:25:01;4.43;;;4.13;;
1206;SDS011;593;53.184;8.216;2023-06-19T14:27:27;4.20;;;3.93;;
1206;SDS011;593;53.184;8.216;2023-06-19T14:29:54;3.70;;;3.40;;
1206;SDS011;593;53.184;8.216;2023-06-19T14:32:19;4.10;;;3.70;;
1206;SDS011;593;53.184;8.216;2023-06-19T14:34:45;4.00;;;3.70;;
1206;SDS011;593;53.184;8.216;2023-06-19T14:37:10;5.20;;;4.80;;
1206;SDS011;593;53.184;8.216;2023-06-19T14:39:35;4.00;;;3.73;;
1206;SDS011;593;53.184;8.216;2023-06-19T14:42:01;4.63;;;4.20;;
1206;SDS011;593;53.184;8.216;2023-06-19T14:44:26;3.77;;;3.53;;
1206;SDS011;593;53.184;8.216;2023-06-19T14:46:51;4.67;;;4.30;;
1206;SDS011;593;53.184;8.216;2023-06-19T14:49:17;4.10;;;3.80;;
1206;SDS011;593;53.184;8.216;2023-06-19T14:51:42;4.70;;;4.30;;
1206;SDS011;593;53.184;8.216;2023-06-19T14:54:08;3.77;;;3.57;;
1206;SDS011;593;53.184;8.216;2023-06-19T14:56:33;3.80;;;3.50;;
1206;SDS011;593;53.184;8.216;2023-06-19T14:59:00;4.40;;;4.00;;
1206;SDS011;593;53.184;8.216;2023-06-19T15:01:27;4.67;;;4.37;;
1206;SDS011;593;53.184;8.216;2023-06-19T15:03:53;8.03;;;3.90;;
1206;SDS011;593;53.184;8.216;2023-06-19T15:06:18;4.10;;;3.90;;
1206;SDS011;593;53.184;8.216;2023-06-19T15:08:43;5.13;;;4.73;;
1206;SDS011;593;53.184;8.216;2023-06-19T15:11:09;5.47;;;5.07;;
1206;SDS011;593;53.184;8.216;2023-06-19T15:13:34;4.53;;;4.23;;
1206;SDS011;593;53.184;8.216;2023-06-19T15:15:59;5.17;;;4.83;;
1206;SDS011;593;53.184;8.216;2023-06-19T15:18:25;4.77;;;4.37;;
1206;SDS011;593;53.184;8.216;2023-06-19T15:20:51;5.43;;;5.00;;
1206;SDS011;593;53.184;8.216;2023-06-19T15:23:16;4.93;;;4.53;;
1206;SDS011;593;53.184;8.216;2023-06-19T15:25:42;5.17;;;4.77;;
1206;SDS011;593;53.184;8.216;2023-06-19T15:28:07;4.77;;;4.47;;
1206;SDS011;593;53.184;8.216;2023-06-19T15:30:33;5.13;;;4.73;;